Time;durP1;ratioP1;P1;durP2;ratioP2;P2;SDS_P1;SDS_P2;PMS_P1;PMS_P2;Temp;Humidity;BMP_temperature;BMP_pressure;BME280_temperature;BME280_humidity;BME280_pressure;Samples;Min_cycle;Max_cycle;Signal;HPM_P1;HPM_P2
2023/05/19 00:01:36;;;;;;;7.93;3.20;;;;;;;14.86;42.46;102551.41;5095510;28;20044;-65
2023/05/19 00:04:05;;;;;;;5.72;2.55;;;;;;;14.84;42.32;102550.78;5090803;28;20472;-65
2023/05/19 00:06:35;;;;;;;8.48;3.78;;;;;;;14.83;42.34;102551.00;5091370;28;20048;-66
2023/05/19 00:09:04;;;;;;;6.20;2.90;;;;;;;14.81;42.67;102553.91;5088318;28;20074;-65
2023/05/19 00:11:36;;;;;;;10.68;3.60;;;;;;;14.72;42.86;102541.63;5094371;28;20052;-64
2023/05/19 00:14:06;;;;;;;8.48;3.55;;;;;;;14.79;42.57;102549.75;5089351;28;20100;-66
2023/05/19 00:16:34;;;;;;;6.53;2.83;;;;;;;14.78;42.60;102553.50;5093165;28;20071;-65
2023/05/19 00:19:04;;;;;;;6.43;3.40;;;;;;;14.77;42.34;102546.41;5094510;28;20079;-64
2023/05/19 00:21:32;;;;;;;7.20;3.13;;;;;;;14.75;42.79;102549.34;5091745;28;20070;-65
2023/05/19 00:24:00;;;;;;;6.13;2.88;;;;;;;14.74;42.60;102541.41;5096116;28;20048;-65
2023/05/19 00:26:28;;;;;;;11.30;3.10;;;;;;;14.72;42.53;102549.75;5090809;28;20055;-65
2023/05/19 00:28:57;;;;;;;8.77;2.95;;;;;;;14.69;42.94;102539.34;5094667;28;20052;-66
2023/05/19 00:31:25;;;;;;;10.27;4.15;;;;;;;14.69;43.06;102533.09;5095495;28;20066;-66
2023/05/19 00:33:52;;;;;;;6.85;3.13;;;;;;;14.67;43.16;102535.19;5095257;28;20198;-66
2023/05/19 00:36:20;;;;;;;11.25;3.75;;;;;;;14.65;42.79;102528.09;5091102;28;20044;-65
2023/05/19 00:38:49;;;;;;;7.60;3.40;;;;;;;14.65;43.26;102527.25;5093286;28;20059;-65
2023/05/19 00:41:17;;;;;;;10.25;3.17;;;;;;;14.63;43.07;102518.53;5090876;28;20048;-65
2023/05/19 00:43:45;;;;;;;10.80;3.30;;;;;;;14.62;43.18;102512.28;5101785;28;20044;-65
2023/05/19 00:46:14;;;;;;;7.35;3.33;;;;;;;14.61;43.16;102513.31;5091849;28;20048;-66
2023/05/19 00:48:43;;;;;;;8.05;3.35;;;;;;;14.60;43.22;102519.78;5098234;28;20131;-66
2023/05/19 00:51:13;;;;;;;11.20;2.95;;;;;;;14.56;43.02;102513.09;5093834;28;20513;-65
2023/05/19 00:53:42;;;;;;;5.82;3.10;;;;;;;14.55;43.06;102507.91;5102200;28;20048;-65
2023/05/19 00:56:10;;;;;;;7.70;3.42;;;;;;;14.57;43.14;102508.53;5089422;28;20529;-65
2023/05/19 00:58:38;;;;;;;5.78;3.13;;;;;;;14.56;43.04;102515.81;5095880;28;20052;-65
2023/05/19 01:01:07;;;;;;;6.90;2.70;;;;;;;14.55;43.28;102513.31;5091024;28;20103;-66
2023/05/19 01:03:37;;;;;;;8.38;3.90;;;;;;;14.51;43.14;102510.19;5094387;28;20058;-65
2023/05/19 01:06:05;;;;;;;9.73;3.30;;;;;;;14.49;43.24;102514.97;5093164;28;20047;-66
2023/05/19 01:08:35;;;;;;;6.50;2.92;;;;;;;14.48;43.13;102515.19;5087591;28;20105;-64
2023/05/19 01:11:05;;;;;;;8.82;3.67;;;;;;;14.47;43.17;102518.94;5090255;28;20101;-65
2023/05/19 01:13:34;;;;;;;11.90;3.70;;;;;;;14.46;43.47;102520.81;5089453;28;20062;-66
2023/05/19 01:16:11;;;;;;;11.65;3.30;;;;;;;14.44;43.58;102512.06;5087925;28;20048;-64
2023/05/19 01:18:46;;;;;;;6.78;3.70;;;;;;;14.44;43.58;102519.34;5089434;28;20052;-65
2023/05/19 01:21:43;;;;;;;7.13;2.85;;;;;;;14.42;43.70;102514.13;5096633;28;20040;-66
2023/05/19 01:24:32;;;;;;;5.85;3.08;;;;;;;14.40;43.47;102515.34;5090844;28;20051;-65
2023/05/19 01:27:23;;;;;;;7.68;3.90;;;;;;;14.38;43.54;102523.66;5087370;28;20047;-65
2023/05/19 01:32:48;;;;;;;6.60;3.13;;;;;;;14.35;43.63;102521.38;5118982;27;20398;-64
2023/05/19 01:35:16;;;;;;;8.77;3.55;;;;;;;14.33;43.81;102516.16;5092153;28;20082;-65
2023/05/19 01:37:46;;;;;;;9.57;3.88;;;;;;;14.30;44.17;102522.00;5099872;28;20060;-65
2023/05/19 01:40:14;;;;;;;9.27;3.75;;;;;;;14.29;44.01;102517.63;5091744;28;20090;-64
2023/05/19 01:42:44;;;;;;;6.72;3.33;;;;;;;14.30;44.30;102526.56;5098977;28;20044;-64
2023/05/19 01:45:12;;;;;;;8.45;3.70;;;;;;;14.29;44.23;102523.03;5097080;28;20055;-66
2023/05/19 01:47:43;;;;;;;5.72;3.20;;;;;;;14.27;44.11;102526.97;5096608;28;20052;-65
2023/05/19 01:50:12;;;;;;;10.27;4.25;;;;;;;14.24;44.03;102522.81;5111452;28;20063;-65
2023/05/19 01:52:40;;;;;;;9.07;3.80;;;;;;;14.23;44.18;102517.59;5091080;28;20041;-65
2023/05/19 01:55:09;;;;;;;6.97;3.33;;;;;;;14.21;44.60;102514.28;5098144;28;20105;-65
2023/05/19 01:57:46;;;;;;;8.38;3.72;;;;;;;14.19;44.71;102510.94;5104498;28;20402;-64
2023/05/19 02:00:23;;;;;;;10.40;3.60;;;;;;;14.18;44.48;102501.16;5092854;28;20048;-64
2023/05/19 02:03:00;;;;;;;7.80;3.30;;;;;;;14.16;44.77;102508.66;5099650;28;20098;-66
2023/05/19 02:05:38;;;;;;;10.73;3.75;;;;;;;14.16;44.99;102505.94;5100194;28;20044;-65
2023/05/19 02:08:13;;;;;;;9.90;3.22;;;;;;;14.15;44.67;102509.69;5094880;28;20052;-65
2023/05/19 02:10:44;;;;;;;10.68;4.43;;;;;;;14.13;44.83;102504.50;5089941;28;20071;-65
2023/05/19 02:13:13;;;;;;;7.38;3.65;;;;;;;14.13;44.82;102503.66;5095788;28;20074;-65
2023/05/19 02:15:42;;;;;;;7.72;3.65;;;;;;;14.08;44.89;102498.03;5097483;28;20057;-64
2023/05/19 02:18:11;;;;;;;13.30;4.28;;;;;;;14.08;44.90;102498.84;5102478;28;20497;-64
2023/05/19 02:20:41;;;;;;;5.85;3.78;;;;;;;14.09;45.09;102494.28;5101627;28;20054;-65
2023/05/19 02:23:09;;;;;;;8.70;4.30;;;;;;;14.08;45.08;102496.16;5098037;28;20052;-64
2023/05/19 02:25:36;;;;;;;12.00;3.70;;;;;;;14.07;45.36;102499.06;5093412;28;20109;-65
2023/05/19 02:28:05;;;;;;;6.43;3.60;;;;;;;14.06;45.41;102500.09;5096130;28;20545;-65
2023/05/19 02:30:33;;;;;;;14.45;4.32;;;;;;;14.04;45.41;102494.06;5095473;28;20051;-64
2023/05/19 02:33:01;;;;;;;12.40;3.83;;;;;;;14.02;45.38;102497.81;5103609;28;20043;-64
2023/05/19 02:35:29;;;;;;;11.15;3.95;;;;;;;14.02;45.50;102499.69;5099724;28;20143;-64
2023/05/19 02:37:58;;;;;;;7.47;3.83;;;;;;;13.99;45.51;102482.00;5094574;28;20052;-65
2023/05/19 02:40:26;;;;;;;8.73;3.65;;;;;;;13.99;45.52;102491.97;5096899;28;20055;-65
2023/05/19 02:42:53;;;;;;;11.20;4.20;;;;;;;13.98;45.78;102495.72;5088775;28;20040;-65
2023/05/19 02:45:21;;;;;;;12.00;4.30;;;;;;;13.98;45.83;102498.41;5085179;28;20063;-64
2023/05/19 02:47:49;;;;;;;10.27;4.10;;;;;;;13.96;45.41;102497.78;5089308;28;20047;-64
2023/05/19 02:50:17;;;;;;;7.50;4.05;;;;;;;13.93;45.92;102485.50;5075308;28;20613;-65
2023/05/19 02:52:45;;;;;;;10.65;4.18;;;;;;;13.94;45.82;102491.75;5072562;28;20041;-65
2023/05/19 02:55:15;;;;;;;12.38;4.20;;;;;;;13.93;45.58;102495.50;5076326;28;20102;-63
2023/05/19 02:57:43;;;;;;;8.75;4.03;;;;;;;13.91;46.10;102489.47;5075732;28;20098;-65
2023/05/19 03:00:12;;;;;;;7.60;3.50;;;;;;;13.90;46.01;102475.09;5081176;28;20043;-66
2023/05/19 03:02:42;;;;;;;9.52;3.60;;;;;;;13.89;45.90;102481.56;5085418;28;20040;-65
2023/05/19 03:05:10;;;;;;;7.63;4.00;;;;;;;13.88;46.23;102489.88;5093672;28;20036;-65
2023/05/19 03:07:38;;;;;;;8.70;4.68;;;;;;;13.88;45.76;102489.88;5077208;28;20728;-65
2023/05/19 03:10:07;;;;;;;10.98;3.75;;;;;;;13.85;45.71;102485.72;5083808;28;20044;-64
2023/05/19 03:12:36;;;;;;;6.40;3.65;;;;;;;13.84;46.03;102475.13;5080497;28;20060;-64
2023/05/19 03:15:05;;;;;;;11.88;4.35;;;;;;;13.83;45.91;102486.97;5082690;28;20052;-64
2023/05/19 03:17:33;;;;;;;12.88;3.75;;;;;;;13.80;46.07;102487.38;5081444;28;20522;-65
2023/05/19 03:20:01;;;;;;;9.10;4.47;;;;;;;13.79;46.00;102483.84;5088004;28;20067;-65
2023/05/19 03:22:29;;;;;;;9.15;4.18;;;;;;;13.78;46.01;102487.59;5080529;28;20041;-64
2023/05/19 03:24:57;;;;;;;14.32;4.45;;;;;;;13.77;46.60;102491.31;5087551;28;20048;-64
2023/05/19 03:27:25;;;;;;;11.02;4.40;;;;;;;13.76;46.13;102486.94;5078188;28;20048;-64
2023/05/19 03:29:54;;;;;;;8.70;4.03;;;;;;;13.75;46.35;102493.38;5089982;28;20109;-64
2023/05/19 03:32:22;;;;;;;9.40;4.50;;;;;;;13.73;46.77;102494.63;5086596;28;20067;-64
2023/05/19 03:34:49;;;;;;;11.38;5.00;;;;;;;13.72;46.73;102488.38;5083663;28;20048;-64
2023/05/19 03:37:17;;;;;;;11.45;4.05;;;;;;;13.71;46.83;102491.28;5083127;28;20048;-64
2023/05/19 03:39:45;;;;;;;8.00;3.97;;;;;;;13.70;46.49;102486.94;5084545;28;20070;-65
2023/05/19 03:42:13;;;;;;;7.30;4.00;;;;;;;13.68;46.54;102496.06;5081545;28;20103;-65
2023/05/19 03:44:40;;;;;;;11.90;3.97;;;;;;;13.67;46.52;102499.81;5088947;28;20056;-64
2023/05/19 03:47:10;;;;;;;10.45;3.75;;;;;;;13.67;46.55;102497.09;5089904;28;20056;-65
2023/05/19 03:49:37;;;;;;;10.77;4.55;;;;;;;13.64;47.06;102502.06;5076996;28;20053;-67
2023/05/19 03:52:05;;;;;;;10.90;4.40;;;;;;;13.63;46.74;102503.13;5074497;28;20079;-65
2023/05/19 03:54:33;;;;;;;9.48;3.83;;;;;;;13.61;46.66;102514.13;5085422;28;20075;-65
2023/05/19 03:57:02;;;;;;;8.07;3.83;;;;;;;13.58;47.31;102505.59;5084792;28;20060;-64
2023/05/19 03:59:30;;;;;;;8.65;4.10;;;;;;;13.56;47.16;102508.50;5088963;28;20040;-66
2023/05/19 04:01:57;;;;;;;11.85;5.50;;;;;;;13.55;47.26;102498.72;5093747;28;20498;-65
2023/05/19 04:04:28;;;;;;;8.27;4.25;;;;;;;13.55;47.16;102508.69;5079876;28;20237;-65
2023/05/19 04:06:56;;;;;;;11.95;4.15;;;;;;;13.53;47.29;102500.78;5083978;28;20137;-65
2023/05/19 04:09:24;;;;;;;8.02;4.05;;;;;;;13.52;47.32;102507.22;5079626;28;20059;-64
2023/05/19 04:11:52;;;;;;;7.88;4.00;;;;;;;13.52;47.75;102504.53;5085073;28;20404;-65
2023/05/19 04:14:20;;;;;;;7.40;3.60;;;;;;;13.51;47.90;102491.22;5086203;28;20084;-66
2023/05/19 04:16:47;;;;;;;5.82;3.58;;;;;;;13.49;47.46;102496.81;5081390;28;20049;-65
2023/05/19 04:19:15;;;;;;;10.25;4.00;;;;;;;13.50;47.54;102505.75;5081125;28;20056;-65
2023/05/19 04:21:44;;;;;;;11.30;3.95;;;;;;;13.48;47.55;102503.25;5087636;28;20069;-65
2023/05/19 04:24:12;;;;;;;8.82;4.47;;;;;;;13.47;47.59;102500.75;5082318;28;20048;-65
2023/05/19 04:26:44;;;;;;;9.43;3.30;;;;;;;13.46;47.99;102499.91;5087114;28;20056;-65
2023/05/19 04:29:12;;;;;;;7.07;3.28;;;;;;;13.46;48.07;102497.22;5083101;28;20041;-65
2023/05/19 04:31:40;;;;;;;7.35;3.42;;;;;;;13.45;48.13;102503.66;5081098;28;20457;-65
2023/05/19 04:34:09;;;;;;;5.40;3.40;;;;;;;13.44;48.14;102502.00;5086685;28;20083;-65
2023/05/19 04:36:37;;;;;;;6.15;3.88;;;;;;;13.43;47.95;102503.03;5080219;28;20062;-65
2023/05/19 04:39:07;;;;;;;8.82;4.35;;;;;;;13.43;48.02;102515.69;5082493;28;20049;-64
2023/05/19 04:41:39;;;;;;;10.27;4.10;;;;;;;13.42;47.92;102511.31;5081293;28;20052;-64
2023/05/19 04:44:07;;;;;;;8.07;3.58;;;;;;;13.40;48.20;102508.81;5083422;28;20047;-66
2023/05/19 04:46:35;;;;;;;10.55;3.60;;;;;;;13.39;48.40;102507.16;5087964;28;20099;-65
2023/05/19 04:49:03;;;;;;;10.93;3.50;;;;;;;13.38;48.42;102500.09;5076796;28;20048;-65
2023/05/19 04:51:31;;;;;;;9.63;3.47;;;;;;;13.37;48.48;102503.81;5079134;28;20146;-64
2023/05/19 04:53:59;;;;;;;8.52;3.38;;;;;;;13.37;48.38;102502.97;5077773;28;20156;-64
2023/05/19 04:56:30;;;;;;;9.07;3.50;;;;;;;13.37;48.38;102502.97;5078682;28;20074;-64
2023/05/19 04:58:58;;;;;;;7.53;3.90;;;;;;;13.34;48.45;102512.31;5083964;28;20040;-63
2023/05/19 05:01:26;;;;;;;11.43;3.63;;;;;;;13.32;48.44;102509.81;5079482;28;20540;-65
2023/05/19 05:03:57;;;;;;;10.25;3.97;;;;;;;13.31;48.84;102505.44;5078882;28;20040;-64
2023/05/19 05:06:27;;;;;;;9.68;3.67;;;;;;;13.31;48.99;102499.22;5079646;28;20071;-65
2023/05/19 05:08:55;;;;;;;9.15;3.53;;;;;;;13.30;48.47;102497.56;5087747;28;20048;-64
2023/05/19 05:11:24;;;;;;;6.30;3.53;;;;;;;13.33;48.64;102497.16;5090485;28;20043;-64
2023/05/19 05:13:56;;;;;;;7.47;3.20;;;;;;;13.30;48.72;102497.56;5076176;28;20060;-64
2023/05/19 05:16:25;;;;;;;9.07;3.40;;;;;;;13.35;48.62;102508.59;5089420;28;20492;-64
2023/05/19 05:18:54;;;;;;;6.97;2.95;;;;;;;13.35;48.58;102508.59;5083510;28;20049;-64
2023/05/19 05:21:23;;;;;;;7.20;3.42;;;;;;;13.35;48.63;102504.03;5068561;28;20067;-65
2023/05/19 05:23:52;;;;;;;5.88;3.35;;;;;;;13.35;48.69;102509.41;4719714;28;10000210;-64
2023/05/19 05:26:21;;;;;;;6.88;3.00;;;;;;;13.38;48.42;102510.06;5079641;28;20375;-65
2023/05/19 05:28:50;;;;;;;7.10;3.15;;;;;;;13.40;48.88;102513.38;5077350;28;20048;-65
2023/05/19 05:31:19;;;;;;;5.90;2.58;;;;;;;13.41;48.77;102510.50;5072514;28;20052;-66
2023/05/19 05:33:47;;;;;;;8.38;3.30;;;;;;;13.42;48.41;102505.91;5076422;28;20051;-65
2023/05/19 05:36:15;;;;;;;8.18;3.55;;;;;;;13.43;48.81;102513.00;5075543;28;20209;-65
2023/05/19 05:38:43;;;;;;;7.18;2.80;;;;;;;13.42;48.38;102508.63;5089843;28;20079;-65
2023/05/19 05:41:11;;;;;;;9.05;3.55;;;;;;;13.42;48.80;102509.47;5081794;28;20110;-65
2023/05/19 05:43:39;;;;;;;9.18;3.17;;;;;;;13.42;48.92;102517.56;5078087;28;20044;-64
2023/05/19 05:46:06;;;;;;;5.28;3.20;;;;;;;13.43;48.41;102516.53;5091942;28;20123;-65
2023/05/19 05:48:36;;;;;;;7.03;3.05;;;;;;;13.45;48.47;102519.03;5089288;28;20079;-65
2023/05/19 05:51:05;;;;;;;5.38;3.17;;;;;;;13.45;48.93;102513.63;5077389;28;20041;-65
2023/05/19 05:53:40;;;;;;;5.32;2.70;;;;;;;13.46;48.94;102516.13;5077902;28;20048;-65
2023/05/19 05:56:09;;;;;;;10.48;3.33;;;;;;;13.47;49.01;102508.84;5085831;28;20078;-66
2023/05/19 05:58:39;;;;;;;10.77;2.92;;;;;;;13.48;48.52;102508.66;5083869;28;20060;-64
2023/05/19 06:01:10;;;;;;;6.20;3.35;;;;;;;13.49;49.01;102513.03;5075951;28;20053;-66
2023/05/19 06:03:43;;;;;;;5.88;2.85;;;;;;;13.50;48.69;102513.84;5083992;28;20083;-63
2023/05/19 06:06:11;;;;;;;5.82;3.47;;;;;;;13.53;49.00;102516.16;5092886;28;20170;-64
2023/05/19 06:08:39;;;;;;;8.60;3.22;;;;;;;13.53;48.46;102511.59;5077255;28;20045;-65
2023/05/19 06:11:07;;;;;;;7.88;2.47;;;;;;;13.55;48.72;102519.50;5076541;28;20052;-65
2023/05/19 06:13:36;;;;;;;6.53;3.00;;;;;;;13.58;48.61;102521.78;5082771;28;20140;-65
2023/05/19 06:16:04;;;;;;;8.25;2.78;;;;;;;13.56;48.77;102521.16;5079024;28;20082;-66
2023/05/19 06:18:32;;;;;;;9.95;2.53;;;;;;;13.60;48.98;102523.25;5090076;28;20049;-68
2023/05/19 06:21:02;;;;;;;8.23;2.70;;;;;;;13.60;48.94;102530.53;5080151;28;20048;-68
2023/05/19 06:23:30;;;;;;;4.57;2.78;;;;;;;13.63;48.63;102528.25;5077124;28;20063;-66
2023/05/19 06:25:58;;;;;;;5.93;3.00;;;;;;;13.67;49.25;102528.69;5079817;28;20537;-66
2023/05/19 06:28:26;;;;;;;5.85;2.70;;;;;;;13.68;48.80;102528.50;5080124;28;20044;-66
2023/05/19 06:30:53;;;;;;;7.32;3.22;;;;;;;13.72;49.01;102534.31;5072499;28;20152;-65
2023/05/19 06:33:21;;;;;;;5.38;2.70;;;;;;;13.74;48.94;102534.97;5076557;28;20052;-64
2023/05/19 06:35:49;;;;;;;7.95;3.17;;;;;;;13.76;49.17;102523.94;5080056;28;20056;-65
2023/05/19 06:38:18;;;;;;;6.78;2.58;;;;;;;13.78;49.15;102525.41;5082065;28;20052;-65
2023/05/19 06:40:46;;;;;;;8.38;3.33;;;;;;;13.82;49.65;102529.38;5088586;28;20040;-64
2023/05/19 06:43:14;;;;;;;10.15;3.42;;;;;;;13.84;49.20;102529.19;5075186;28;20079;-65
2023/05/19 06:45:41;;;;;;;6.03;2.65;;;;;;;13.87;49.24;102526.03;5078921;28;20466;-64
2023/05/19 06:48:09;;;;;;;7.80;2.67;;;;;;;13.90;49.47;102523.75;5090156;28;20073;-65
2023/05/19 06:50:37;;;;;;;7.95;2.80;;;;;;;13.91;49.73;102517.31;5078632;28;20053;-65
2023/05/19 06:53:05;;;;;;;10.60;2.85;;;;;;;13.93;49.38;102520.66;5078030;28;20422;-64
2023/05/19 06:55:34;;;;;;;9.38;2.83;;;;;;;13.95;49.45;102525.84;5082059;28;20049;-64
2023/05/19 06:58:17;;;;;;;8.13;2.85;;;;;;;13.96;49.25;102517.53;5082143;28;20467;-64
2023/05/19 07:00:45;;;;;;;7.20;3.15;;;;;;;13.97;49.31;102521.91;5081452;28;20056;-64
2023/05/19 07:03:12;;;;;;;11.25;3.10;;;;;;;13.91;49.45;102503.81;5080941;28;20146;-63
2023/05/19 07:05:40;;;;;;;7.90;2.90;;;;;;;14.03;49.57;102517.56;5078034;28;20489;-63
2023/05/19 07:08:08;;;;;;;7.65;2.40;;;;;;;14.05;49.70;102520.91;5078625;28;20044;-64
2023/05/19 07:10:37;;;;;;;8.02;3.00;;;;;;;14.06;49.50;102519.03;5081971;28;20052;-64
2023/05/19 07:13:05;;;;;;;7.57;2.70;;;;;;;14.10;49.70;102523.00;5078692;28;20060;-64
2023/05/19 07:15:33;;;;;;;5.25;2.45;;;;;;;14.11;49.25;102517.38;5080200;28;20048;-64
2023/05/19 07:18:01;;;;;;;5.13;2.30;;;;;;;14.13;49.75;102519.88;5081136;28;20045;-65
2023/05/19 07:20:29;;;;;;;6.68;2.70;;;;;;;14.14;49.49;102522.38;5079930;28;20100;-64
2023/05/19 07:22:57;;;;;;;6.75;2.60;;;;;;;14.16;49.60;102522.16;5081617;28;20044;-63
2023/05/19 07:25:27;;;;;;;8.95;3.03;;;;;;;14.18;49.86;102522.81;5083815;28;20041;-64
2023/05/19 07:27:56;;;;;;;7.40;2.60;;;;;;;14.18;49.56;102520.94;5075639;28;20106;-68
2023/05/19 07:30:24;;;;;;;5.82;2.58;;;;;;;14.19;49.40;102519.88;5083028;28;20158;-65
2023/05/19 07:32:52;;;;;;;6.57;2.47;;;;;;;14.20;49.74;102520.72;5088380;28;20083;-68
2023/05/19 07:35:21;;;;;;;12.07;2.75;;;;;;;14.21;49.73;102516.97;5079593;28;20044;-67
2023/05/19 07:37:49;;;;;;;8.65;2.85;;;;;;;14.22;49.84;102527.59;5081285;28;20045;-66
2023/05/19 07:40:17;;;;;;;10.93;2.97;;;;;;;14.24;50.10;102516.56;5075417;28;20071;-66
2023/05/19 07:42:45;;;;;;;6.70;2.40;;;;;;;14.26;49.56;102518.03;5077700;28;20045;-66
2023/05/19 07:45:14;;;;;;;4.70;2.33;;;;;;;14.30;49.91;102521.16;5076415;28;20098;-65
2023/05/19 07:47:42;;;;;;;8.73;3.00;;;;;;;14.31;50.30;102520.97;5081719;28;20241;-64
2023/05/19 07:50:10;;;;;;;5.47;2.83;;;;;;;14.33;49.91;102518.03;5081240;28;20168;-65
2023/05/19 07:52:38;;;;;;;5.68;2.40;;;;;;;14.34;49.84;102523.25;5079266;28;20060;-65
2023/05/19 07:55:06;;;;;;;5.18;2.42;;;;;;;14.35;50.27;102518.66;5078355;28;20048;-65
2023/05/19 07:57:34;;;;;;;12.55;2.85;;;;;;;14.38;49.95;102514.72;5069268;28;20105;-66
2023/05/19 08:00:02;;;;;;;9.30;3.60;;;;;;;14.38;50.95;102510.16;5077995;28;20094;-64
2023/05/19 08:02:32;;;;;;;12.48;3.90;;;;;;;14.36;50.82;102504.09;5077432;28;20285;-67
2023/05/19 08:05:00;;;;;;;10.50;3.30;;;;;;;14.36;51.05;102504.09;5072696;28;20052;-66
2023/05/19 08:07:28;;;;;;;9.73;3.13;;;;;;;14.37;50.76;102505.78;5081772;28;20048;-66
2023/05/19 08:09:56;;;;;;;13.77;3.22;;;;;;;14.38;50.68;102507.44;5074328;28;20049;-66
2023/05/19 08:12:23;;;;;;;9.48;3.03;;;;;;;14.39;50.68;102506.41;5070837;28;20048;-66
2023/05/19 08:14:51;;;;;;;8.52;3.03;;;;;;;14.41;51.02;102511.59;5080289;28;20118;-66
2023/05/19 08:17:19;;;;;;;9.50;3.40;;;;;;;14.41;50.67;102509.72;5083606;28;20055;-67
2023/05/19 08:19:48;;;;;;;6.28;2.50;;;;;;;14.41;50.88;102496.22;5076389;28;20549;-66
2023/05/19 08:22:16;;;;;;;10.90;3.05;;;;;;;14.41;50.95;102493.50;5074632;28;20053;-64
2023/05/19 08:24:44;;;;;;;8.75;3.03;;;;;;;14.43;51.05;102493.31;5080566;28;20071;-62
2023/05/19 08:27:12;;;;;;;10.40;3.53;;;;;;;14.43;50.84;102487.91;5079359;28;20453;-64
2023/05/19 08:29:40;;;;;;;8.75;3.33;;;;;;;14.47;51.39;102494.56;5081250;28;20065;-63
2023/05/19 08:32:08;;;;;;;10.63;3.85;;;;;;;14.49;51.32;102489.78;5088405;28;20122;-63
2023/05/19 08:34:40;;;;;;;8.23;3.42;;;;;;;14.54;51.48;102490.84;5073618;28;20070;-63
2023/05/19 08:37:09;;;;;;;10.60;3.70;;;;;;;14.60;51.17;102489.16;5080032;28;20048;-63
2023/05/19 08:39:37;;;;;;;10.80;4.07;;;;;;;14.63;51.22;102486.88;5077932;28;20074;-63
2023/05/19 08:42:06;;;;;;;11.35;3.55;;;;;;;14.69;51.57;102476.25;5081511;28;20053;-63
2023/05/19 08:44:34;;;;;;;9.02;3.47;;;;;;;14.73;51.48;102477.50;5076358;28;20070;-63
2023/05/19 08:47:03;;;;;;;12.05;3.03;;;;;;;14.77;51.50;102467.94;5081393;28;20052;-63
2023/05/19 08:49:35;;;;;;;9.73;3.60;;;;;;;14.82;51.07;102468.13;5076165;28;20055;-64
2023/05/19 08:52:15;;;;;;;9.98;3.63;;;;;;;14.88;50.56;102465.41;5072718;28;20052;-62
2023/05/19 08:54:47;;;;;;;12.27;2.50;;;;;;;14.92;50.92;102460.41;5073321;28;20036;-62
2023/05/19 08:57:15;;;;;;;12.05;3.08;;;;;;;14.93;50.63;102454.78;5075689;28;20037;-63
2023/05/19 08:59:43;;;;;;;10.88;3.10;;;;;;;14.94;50.80;102459.16;5075682;28;20045;-64
2023/05/19 09:02:14;;;;;;;9.48;2.13;;;;;;;14.94;50.38;102455.63;5073743;28;20169;-65
2023/05/19 09:04:44;;;;;;;6.63;2.38;;;;;;;14.97;50.40;102452.47;5071242;28;20045;-65
2023/05/19 09:07:14;;;;;;;6.97;2.08;;;;;;;14.97;49.77;102447.06;5078322;28;20729;-65
2023/05/19 09:09:42;;;;;;;8.15;2.33;;;;;;;15.00;49.88;102440.41;5082173;28;20044;-64
2023/05/19 09:12:11;;;;;;;10.25;2.40;;;;;;;15.06;49.66;102445.78;5086354;28;20048;-65
2023/05/19 09:14:39;;;;;;;7.57;2.72;;;;;;;15.14;49.84;102444.72;5074465;28;20082;-67
2023/05/19 09:17:07;;;;;;;8.98;2.63;;;;;;;15.19;49.47;102453.88;5080133;28;20052;-64
2023/05/19 09:19:35;;;;;;;5.70;2.30;;;;;;;15.27;49.97;102441.97;5074371;28;20063;-66
2023/05/19 09:22:03;;;;;;;7.38;2.72;;;;;;;15.32;49.21;102441.34;5072901;28;20539;-65
2023/05/19 09:24:34;;;;;;;7.07;2.47;;;;;;;15.33;49.18;102430.28;5073373;28;20052;-65
2023/05/19 09:27:01;;;;;;;9.50;2.25;;;;;;;15.32;48.57;102436.75;5069086;28;20052;-65
2023/05/19 09:29:29;;;;;;;7.97;2.20;;;;;;;15.32;48.32;102431.34;5079780;28;20055;-66
2023/05/19 09:31:59;;;;;;;6.30;1.48;;;;;;;15.33;48.41;102427.59;5079682;28;20060;-65
2023/05/19 09:34:27;;;;;;;5.22;1.83;;;;;;;15.35;48.22;102430.06;5079118;28;20070;-65
2023/05/19 09:36:56;;;;;;;7.88;2.20;;;;;;;15.37;48.27;102417.97;5064322;28;20048;-65
2023/05/19 09:39:24;;;;;;;5.97;2.28;;;;;;;15.39;48.53;102421.31;5079969;28;20044;-66
2023/05/19 09:41:54;;;;;;;4.57;1.73;;;;;;;15.43;48.86;102419.00;5078035;28;20052;-65
2023/05/19 09:44:23;;;;;;;6.88;1.70;;;;;;;15.43;48.28;102417.13;5077603;28;20063;-65
2023/05/19 09:46:51;;;;;;;6.15;1.75;;;;;;;15.43;48.20;102430.66;5079893;28;20056;-67
2023/05/19 09:49:21;;;;;;;7.30;2.55;;;;;;;15.42;47.97;102420.03;5079782;28;20040;-65
2023/05/19 09:51:50;;;;;;;5.72;2.05;;;;;;;15.42;48.05;102431.72;5071766;28;20044;-65
2023/05/19 09:54:20;;;;;;;4.50;1.80;;;;;;;15.43;48.07;102422.53;5082650;28;20053;-65
2023/05/19 09:56:53;;;;;;;6.50;2.30;;;;;;;15.43;48.06;102427.94;5083769;28;20044;-65
2023/05/19 09:59:24;;;;;;;7.40;2.55;;;;;;;15.46;47.64;102419.41;5072756;28;20110;-65
2023/05/19 10:01:55;;;;;;;5.38;1.95;;;;;;;15.51;47.44;102424.16;5083770;28;20441;-65
2023/05/19 10:04:24;;;;;;;4.55;2.00;;;;;;;15.54;47.60;102424.56;5081574;28;20527;-66
2023/05/19 10:06:53;;;;;;;6.28;1.83;;;;;;;15.57;47.30;102418.75;5080753;28;20044;-66
2023/05/19 10:09:24;;;;;;;6.47;1.77;;;;;;;15.58;47.28;102425.81;5084031;28;20048;-66
2023/05/19 10:11:52;;;;;;;6.03;1.90;;;;;;;15.58;47.09;102417.69;5083691;28;20056;-65
2023/05/19 10:14:24;;;;;;;4.00;1.70;;;;;;;15.69;47.64;102418.84;5083208;28;20047;-65
2023/05/19 10:16:53;;;;;;;6.10;1.45;;;;;;;15.74;47.68;102420.91;5082544;28;20045;-65
2023/05/19 10:19:22;;;;;;;6.72;1.88;;;;;;;15.83;47.78;102414.19;5083901;28;20045;-66
2023/05/19 10:21:51;;;;;;;5.05;1.70;;;;;;;15.91;47.88;102408.50;5083116;28;20102;-65
2023/05/19 10:24:20;;;;;;;5.82;1.83;;;;;;;15.92;47.26;102413.72;5075513;28;20135;-65
2023/05/19 10:26:51;;;;;;;5.45;2.25;;;;;;;15.96;47.34;102416.81;5082984;28;20079;-65
2023/05/19 10:29:26;;;;;;;4.25;1.50;;;;;;;15.97;48.00;102406.78;5080996;28;20128;-66
2023/05/19 10:31:56;;;;;;;12.30;2.08;;;;;;;16.00;47.23;102409.91;5075253;28;20065;-66
2023/05/19 10:34:49;;;;;;;14.95;2.70;;;;;;;16.05;46.77;102409.25;5084024;28;20044;-65
2023/05/19 10:37:25;;;;;;;6.53;2.08;;;;;;;16.05;47.38;102395.69;5081551;28;20040;-65
2023/05/19 10:39:54;;;;;;;9.20;1.88;;;;;;;16.10;47.50;102410.25;5082382;28;20052;-66
2023/05/19 10:42:34;;;;;;;5.07;2.13;;;;;;;16.15;47.41;102394.13;5083215;28;20056;-66
2023/05/19 10:45:13;;;;;;;5.93;1.90;;;;;;;16.20;47.11;102399.72;5073180;28;20044;-66
2023/05/19 10:47:41;;;;;;;5.78;2.10;;;;;;;16.23;47.00;102393.03;5083384;28;20106;-66
2023/05/19 10:50:09;;;;;;;9.85;2.45;;;;;;;16.27;47.26;102400.50;5088981;28;20055;-65
2023/05/19 10:52:38;;;;;;;5.95;1.85;;;;;;;16.34;47.39;102392.31;5075852;28;20048;-65
2023/05/19 10:55:08;;;;;;;6.47;2.17;;;;;;;16.41;46.89;102378.69;5083631;28;20049;-65
2023/05/19 10:57:36;;;;;;;11.98;2.88;;;;;;;16.55;48.27;102388.34;5076807;28;20049;-65
2023/05/19 11:00:27;;;;;;;9.38;2.40;;;;;;;16.62;47.99;102396.44;5081953;28;20117;-65
2023/05/19 11:03:12;;;;;;;5.75;1.70;;;;;;;16.70;46.73;102388.03;5078985;28;20059;-65
2023/05/19 11:05:40;;;;;;;6.57;1.88;;;;;;;16.75;47.10;102382.75;5081181;28;20045;-65
2023/05/19 11:08:10;;;;;;;4.80;1.65;;;;;;;16.83;47.70;102391.44;5081286;28;20044;-66
2023/05/19 11:10:38;;;;;;;5.22;1.65;;;;;;;16.86;47.12;102390.97;5082568;28;20056;-66
2023/05/19 11:13:06;;;;;;;4.50;1.67;;;;;;;16.90;47.10;102392.19;5083544;28;20049;-66
2023/05/19 11:15:42;;;;;;;13.15;2.25;;;;;;;16.92;46.77;102387.34;5077573;28;20429;-65
2023/05/19 11:18:14;;;;;;;;;;;;;;;16.95;46.75;102380.66;5077440;28;20064;-65
2023/05/19 11:20:43;;;;;;;6.30;2.08;;;;;;;16.95;44.97;102380.66;5081540;28;20318;-65
2023/05/19 11:23:17;;;;;;;4.65;1.75;;;;;;;16.94;45.40;102387.13;5078213;28;20048;-65
2023/05/19 11:25:46;;;;;;;5.32;2.17;;;;;;;17.00;46.87;102388.13;5080565;28;20143;-65
2023/05/19 11:28:17;;;;;;;6.40;2.00;;;;;;;17.03;45.50;102384.94;5080605;28;20052;-65
2023/05/19 11:30:50;;;;;;;6.85;1.90;;;;;;;17.06;45.68;102374.44;5077117;28;20477;-65
2023/05/19 11:33:19;;;;;;;8.20;1.77;;;;;;;17.08;45.59;102376.94;5081717;28;20044;-65
2023/05/19 11:35:48;;;;;;;4.03;1.95;;;;;;;17.12;44.95;102376.25;5074671;28;20044;-66
2023/05/19 11:38:18;;;;;;;4.15;1.65;;;;;;;17.11;43.75;102374.59;5081910;28;20048;-65